Time;durP1;ratioP1;P1;durP2;ratioP2;P2;SDS_P1;SDS_P2;PMS_P1;PMS_P2;Temp;Humidity;BMP_temperature;BMP_pressure;BME280_temperature;BME280_humidity;BME280_pressure;Samples;Min_cycle;Max_cycle;Signal;HPM_P1;HPM_P2
2022/01/22 00:00:19;;;;;;;10.93;7.13;;;5.60;99.90;;;;;;10306818;28;20182;-74
2022/01/22 00:05:21;;;;;;;9.40;7.20;;;5.60;99.90;;;;;;10319570;28;20205;-74
2022/01/22 00:10:24;;;;;;;14.33;7.47;;;5.60;99.90;;;;;;10328280;28;20300;-74
2022/01/22 00:15:25;;;;;;;11.03;6.60;;;5.50;99.90;;;;;;10328584;28;20183;-73
2022/01/22 00:20:30;;;;;;;13.00;7.23;;;5.60;99.90;;;;;;10328171;28;20261;-74
2022/01/22 00:25:32;;;;;;;9.77;6.20;;;5.50;99.90;;;;;;10312234;28;20233;-74
2022/01/22 00:30:33;;;;;;;9.27;6.47;;;5.60;99.90;;;;;;10323241;28;20717;-73
2022/01/22 00:35:33;;;;;;;8.97;6.73;;;5.60;99.90;;;;;;10319872;28;20217;-74
2022/01/22 00:40:34;;;;;;;10.30;6.60;;;5.60;99.90;;;;;;10313105;28;20230;-72
2022/01/22 00:45:34;;;;;;;8.63;6.13;;;5.60;99.90;;;;;;10302942;28;20249;-74
2022/01/22 00:50:35;;;;;;;9.77;5.67;;;5.60;99.90;;;;;;10311040;28;20253;-75
2022/01/22 00:55:36;;;;;;;7.43;4.67;;;5.60;99.90;;;;;;10312814;28;20301;-74
2022/01/22 01:00:37;;;;;;;5.23;4.30;;;5.50;99.90;;;;;;10328624;28;20241;-73
2022/01/22 01:05:38;;;;;;;10.23;4.80;;;5.50;99.90;;;;;;10307254;28;20754;-73
2022/01/22 01:10:38;;;;;;;6.10;3.57;;;5.50;99.90;;;;;;10311974;28;20232;-74
2022/01/22 01:15:41;;;;;;;7.03;3.10;;;5.50;99.90;;;;;;10323390;28;20354;-73
2022/01/22 01:36:42;;;;;;;6.47;2.50;;;5.50;99.90;;;;;;10313259;28;20701;-72
2022/01/22 01:41:53;;;;;;;7.03;2.50;;;5.60;99.90;;;;;;10326064;28;20280;-73
2022/01/22 01:46:59;;;;;;;4.67;2.60;;;5.50;99.90;;;;;;10324594;28;20280;-72
2022/01/22 01:52:02;;;;;;;5.43;2.70;;;5.60;99.90;;;;;;10322315;28;20325;-73
2022/01/22 02:02:26;;;;;;;4.20;2.97;;;5.50;99.90;;;;;;10327609;28;20234;-73
2022/01/22 02:07:27;;;;;;;4.20;2.80;;;5.50;99.90;;;;;;10290425;28;20233;-74
2022/01/22 02:28:07;;;;;;;6.00;2.77;;;5.50;99.90;;;;;;10314700;28;20221;-74
2022/01/22 02:38:29;;;;;;;6.67;3.53;;;5.50;99.90;;;;;;10304563;28;20237;-75
2022/01/22 02:43:33;;;;;;;5.67;2.67;;;5.50;99.90;;;;;;10313569;28;20234;-73
2022/01/22 02:48:33;;;;;;;5.53;2.83;;;5.50;99.90;;;;;;10294953;28;20241;-73
2022/01/22 02:53:34;;;;;;;5.33;3.20;;;5.50;99.90;;;;;;10317545;28;20220;-74
2022/01/22 02:58:36;;;;;;;6.07;3.20;;;5.50;99.90;;;;;;10324831;28;20234;-75
2022/01/22 03:03:39;;;;;;;7.07;4.10;;;5.50;99.90;;;;;;10312146;28;20268;-74
2022/01/22 03:08:42;;;;;;;7.47;4.10;;;5.50;99.90;;;;;;10292451;28;20223;-75
2022/01/22 03:18:51;;;;;;;9.13;4.50;;;5.50;99.90;;;;;;10319388;28;20291;-74
2022/01/22 03:29:17;;;;;;;8.93;4.00;;;5.50;99.90;;;;;;10320455;28;20222;-74
2022/01/22 03:34:18;;;;;;;6.27;3.90;;;5.50;99.90;;;;;;10316547;28;20215;-75
2022/01/22 03:39:19;;;;;;;7.60;3.93;;;5.50;99.90;;;;;;10317702;28;20223;-75
2022/01/22 03:44:20;;;;;;;9.90;6.23;;;5.50;99.90;;;;;;10305476;28;20256;-74
2022/01/22 03:49:21;;;;;;;6.13;4.20;;;5.50;99.90;;;;;;10310978;28;20256;-75
2022/01/22 03:54:24;;;;;;;8.00;4.20;;;5.60;99.90;;;;;;10292216;28;20242;-75
2022/01/22 03:59:27;;;;;;;7.27;4.17;;;5.60;99.90;;;;;;10312251;28;20334;-74
2022/01/22 04:05:09;;;;;;;10.77;4.20;;;5.60;99.90;;;;;;10316711;28;20286;-73
2022/01/22 04:09:54;;;;;;;6.87;3.67;;;5.60;99.90;;;;;;10311069;28;20322;-73
2022/01/22 04:15:01;;;;;;;6.17;3.60;;;5.60;99.90;;;;;;10325544;28;20294;-74
2022/01/22 04:25:25;;;;;;;8.67;3.73;;;5.60;99.90;;;;;;10323799;28;20666;-75
2022/01/22 04:30:28;;;;;;;8.27;3.77;;;5.50;99.90;;;;;;10318055;28;20230;-74
2022/01/22 04:35:29;;;;;;;7.17;3.80;;;5.50;99.90;;;;;;10306857;28;20760;-75
2022/01/22 04:40:29;;;;;;;4.97;3.30;;;5.50;99.90;;;;;;10308686;28;20280;-74
2022/01/22 04:46:05;;;;;;;6.23;3.43;;;5.50;99.90;;;;;;10330247;28;20268;-73
2022/01/22 04:56:10;;;;;;;9.90;3.60;;;5.50;99.90;;;;;;10321627;28;20225;-74
2022/01/22 05:01:11;;;;;;;4.93;3.37;;;5.50;99.90;;;;;;10313846;28;20218;-75
2022/01/22 05:06:11;;;;;;;7.47;3.30;;;5.50;99.90;;;;;;10331469;28;20641;-74
2022/01/22 05:11:12;;;;;;;11.07;3.97;;;5.50;99.90;;;;;;10324759;28;20230;-74
2022/01/22 05:16:13;;;;;;;8.23;3.90;;;5.60;99.90;;;;;;10316931;28;20218;-75
2022/01/22 05:21:16;;;;;;;8.93;3.70;;;5.50;99.90;;;;;;10326785;28;20217;-74
2022/01/22 05:41:57;;;;;;;8.73;3.80;;;5.50;99.90;;;;;;10312520;28;20225;-72
2022/01/22 05:47:05;;;;;;;6.80;3.87;;;5.50;99.90;;;;;;10326968;28;20598;-72
2022/01/22 05:52:08;;;;;;;8.43;3.47;;;5.50;99.90;;;;;;10301834;28;20791;-73
2022/01/22 06:02:28;;;;;;;7.17;3.60;;;5.50;99.90;;;;;;10314231;28;20230;-72
2022/01/22 06:07:29;;;;;;;5.17;3.50;;;5.50;99.90;;;;;;10321883;28;20229;-72
2022/01/22 06:17:39;;;;;;;7.37;3.40;;;5.50;99.90;;;;;;10327701;28;20557;-74
2022/01/22 06:22:41;;;;;;;10.53;3.63;;;5.50;99.90;;;;;;10297841;28;20214;-74
2022/01/22 06:27:41;;;;;;;8.97;3.70;;;5.50;99.90;;;;;;10320006;28;20218;-74
2022/01/22 06:32:42;;;;;;;7.47;4.20;;;5.50;99.90;;;;;;10301652;28;20225;-74
2022/01/22 06:37:43;;;;;;;6.73;3.50;;;5.50;99.90;;;;;;10313494;28;20277;-73
2022/01/22 06:42:44;;;;;;;5.80;3.30;;;5.50;99.90;;;;;;10296228;28;20218;-73
2022/01/22 06:47:48;;;;;;;6.83;3.70;;;5.50;99.90;;;;;;10316729;28;20305;-74
2022/01/22 06:52:56;;;;;;;5.90;4.03;;;5.50;99.90;;;;;;10321471;28;20249;-75
2022/01/22 06:57:57;;;;;;;4.77;3.87;;;5.50;99.90;;;;;;10330302;28;20222;-75
2022/01/22 07:02:58;;;;;;;5.40;4.27;;;5.60;99.90;;;;;;10313833;28;20225;-74
2022/01/22 07:07:59;;;;;;;6.03;3.97;;;5.60;99.90;;;;;;10307915;28;20253;-76
2022/01/22 07:13:00;;;;;;;5.33;4.10;;;5.60;99.90;;;;;;10326876;28;20220;-75
2022/01/22 07:18:01;;;;;;;7.13;3.90;;;5.60;99.90;;;;;;10314770;28;20305;-74
2022/01/22 07:23:13;;;;;;;5.80;4.10;;;5.60;99.90;;;;;;10322976;28;20225;-73
2022/01/22 07:28:13;;;;;;;5.40;3.87;;;5.70;99.90;;;;;;10320328;28;20249;-75
2022/01/22 07:33:15;;;;;;;7.43;4.13;;;5.70;99.90;;;;;;10308415;28;20217;-75
2022/01/22 07:38:16;;;;;;;7.60;4.13;;;5.70;99.90;;;;;;10316371;28;20286;-73
2022/01/22 07:43:16;;;;;;;6.70;4.13;;;5.70;99.90;;;;;;10323699;28;20297;-73
2022/01/22 07:48:17;;;;;;;7.87;4.80;;;5.70;99.90;;;;;;10327965;28;20338;-73
2022/01/22 07:53:18;;;;;;;9.40;5.07;;;5.70;99.90;;;;;;10315815;28;20240;-75
2022/01/22 07:58:18;;;;;;;7.90;4.83;;;5.80;99.90;;;;;;10295522;28;20268;-75
2022/01/22 08:03:19;;;;;;;7.70;5.23;;;5.80;99.90;;;;;;10316532;28;20226;-75
2022/01/22 08:08:22;;;;;;;7.23;5.50;;;5.80;99.90;;;;;;10320760;28;20377;-74
2022/01/22 08:13:23;;;;;;;6.97;5.40;;;5.80;99.90;;;;;;10320585;28;20295;-74
2022/01/22 08:18:24;;;;;;;7.83;5.70;;;5.80;99.90;;;;;;10317584;28;20284;-73
2022/01/22 08:23:24;;;;;;;7.43;5.23;;;5.80;99.90;;;;;;10325856;28;20225;-73
2022/01/22 08:39:04;;;;;;;7.13;4.97;;;6.10;99.90;;;;;;10325620;28;20221;-73
2022/01/22 08:44:06;;;;;;;6.60;4.73;;;6.20;99.90;;;;;;10326445;28;20233;-74
2022/01/22 08:49:08;;;;;;;6.73;4.97;;;6.20;99.90;;;;;;10310060;28;20741;-74
2022/01/22 08:54:10;;;;;;;6.40;4.23;;;6.20;99.90;;;;;;10332798;28;20228;-73
2022/01/22 08:59:12;;;;;;;5.10;3.90;;;6.30;99.90;;;;;;10325361;28;20261;-73
2022/01/22 09:04:13;;;;;;;5.00;3.73;;;6.30;99.90;;;;;;10330121;28;20236;-73
2022/01/22 09:09:13;;;;;;;4.30;3.67;;;6.40;99.90;;;;;;10310500;28;20272;-76
2022/01/22 09:14:16;;;;;;;5.30;3.80;;;6.50;99.90;;;;;;10299389;28;20221;-76
2022/01/22 09:19:17;;;;;;;4.93;3.60;;;6.50;99.90;;;;;;10326288;28;20757;-76
2022/01/22 09:24:28;;;;;;;5.17;3.73;;;6.60;99.90;;;;;;10328436;28;20249;-74
2022/01/22 09:29:28;;;;;;;4.67;3.70;;;6.60;99.90;;;;;;10302740;28;20297;-73
2022/01/22 09:34:29;;;;;;;5.47;3.90;;;6.60;99.90;;;;;;10328260;28;20218;-74
2022/01/22 09:39:33;;;;;;;4.33;3.90;;;6.60;99.90;;;;;;10297738;28;20219;-76
2022/01/22 09:44:33;;;;;;;5.80;4.00;;;6.50;99.90;;;;;;10324165;28;20222;-74
2022/01/22 09:49:34;;;;;;;4.77;4.00;;;6.60;99.90;;;;;;10322350;28;20527;-75
2022/01/22 09:54:35;;;;;;;6.43;3.93;;;6.80;99.90;;;;;;10322020;28;20305;-75
2022/01/22 09:59:36;;;;;;;3.70;3.40;;;6.90;99.90;;;;;;10326697;28;20839;-76
2022/01/22 10:04:39;;;;;;;5.70;3.93;;;6.90;99.90;;;;;;10304877;28;20591;-74
2022/01/22 10:09:54;;;;;;;4.37;3.60;;;7.00;99.90;;;;;;10309469;28;20298;-74
2022/01/22 10:15:11;;;;;;;4.53;3.97;;;7.10;99.90;;;;;;10319143;28;20397;-74
2022/01/22 10:20:20;;;;;;;5.00;3.87;;;7.10;99.90;;;;;;10320482;28;20627;-74
2022/01/22 10:25:31;;;;;;;4.93;3.20;;;7.20;99.90;;;;;;10325483;28;20229;-74
2022/01/22 10:30:39;;;;;;;4.23;3.87;;;7.30;99.90;;;;;;10324776;28;20686;-77
2022/01/22 10:35:39;;;;;;;4.40;4.00;;;7.30;99.90;;;;;;10308702;28;20226;-75
2022/01/22 10:40:42;;;;;;;4.87;4.40;;;7.30;99.90;;;;;;10325292;28;20613;-74
2022/01/22 10:51:15;;;;;;;5.23;4.73;;;7.30;99.90;;;;;;10324481;28;20942;-74
2022/01/22 10:56:19;;;;;;;5.90;5.17;;;7.30;99.90;;;;;;10322114;28;20313;-74
2022/01/22 11:01:21;;;;;;;4.70;4.20;;;7.30;99.90;;;;;;10306791;28;20713;-76
2022/01/22 11:06:28;;;;;;;4.50;4.10;;;7.30;99.90;;;;;;10307092;28;20575;-75
2022/01/22 11:11:30;;;;;;;4.50;4.10;;;7.30;99.90;;;;;;10321287;28;20228;-75
2022/01/22 11:16:32;;;;;;;4.50;4.07;;;7.40;99.90;;;;;;10319035;28;20223;-75
2022/01/22 11:21:33;;;;;;;5.60;4.87;;;7.40;99.90;;;;;;10322998;28;20254;-73
2022/01/22 11:26:34;;;;;;;6.03;4.90;;;7.40;99.90;;;;;;10328035;28;20328;-74
2022/01/22 11:31:37;;;;;;;5.80;5.30;;;7.40;99.90;;;;;;10320938;28;20244;-76
2022/01/22 11:37:23;;;;;;;6.27;5.67;;;7.40;99.90;;;;;;10324502;28;20255;-74
2022/01/22 11:42:44;;;;;;;6.10;5.47;;;7.30;99.90;;;;;;10328857;28;20273;-75
2022/01/22 11:48:18;;;;;;;6.30;5.27;;;7.40;99.90;;;;;;10319086;28;20297;-76
2022/01/22 11:53:25;;;;;;;6.07;5.57;;;7.40;99.90;;;;;;10317389;28;20227;-76
2022/01/22 11:58:25;;;;;;;6.10;5.50;;;7.50;99.90;;;;;;10325973;28;20354;-75
2022/01/22 12:03:26;;;;;;;6.97;6.27;;;7.40;99.90;;;;;;10331935;28;20314;-75
2022/01/22 12:08:26;;;;;;;6.03;5.43;;;7.50;99.90;;;;;;10321076;28;20617;-73
2022/01/22 12:18:57;;;;;;;6.13;5.53;;;7.60;99.90;;;;;;10330902;28;20220;-74
2022/01/22 12:23:58;;;;;;;6.07;5.47;;;7.60;99.90;;;;;;10313375;28;20224;-75
2022/01/22 12:28:59;;;;;;;6.40;5.00;;;7.60;99.90;;;;;;10309328;28;20650;-74
2022/01/22 12:34:02;;;;;;;5.60;5.00;;;7.70;99.90;;;;;;10317879;28;20247;-74
2022/01/22 12:39:06;;;;;;;5.33;4.57;;;7.70;99.90;;;;;;10326960;28;20243;-74
2022/01/22 12:44:28;;;;;;;4.73;3.63;;;7.80;99.90;;;;;;10325514;28;20223;-73
2022/01/22 12:49:30;;;;;;;4.83;3.67;;;7.80;99.90;;;;;;10308933;28;20271;-75
2022/01/22 12:54:44;;;;;;;4.10;3.70;;;7.80;99.90;;;;;;10314064;28;20267;-72
2022/01/22 13:00:17;;;;;;;3.40;3.10;;;7.80;99.90;;;;;;10327874;28;20251;-73
2022/01/22 13:05:19;;;;;;;3.63;3.33;;;7.80;99.90;;;;;;10321008;28;20249;-73
2022/01/22 13:10:27;;;;;;;3.63;2.93;;;7.80;99.90;;;;;;10319135;28;20234;-73
2022/01/22 13:15:27;;;;;;;2.90;2.60;;;7.80;99.90;;;;;;10321838;28;20252;-73
2022/01/22 13:20:32;;;;;;;2.90;2.70;;;7.80;99.90;;;;;;10320393;28;20335;-74
2022/01/22 13:25:37;;;;;;;2.70;2.50;;;7.80;99.90;;;;;;10306154;28;20225;-72
2022/01/22 13:30:56;;;;;;;2.73;2.53;;;7.70;99.90;;;;;;10321460;28;20231;-73
2022/01/22 13:37:38;;;;;;;2.93;2.73;;;7.60;99.90;;;;;;10325749;28;20694;-77
2022/01/22 13:47:46;;;;;;;2.87;2.50;;;7.50;99.90;;;;;;10330321;28;20223;-72
2022/01/22 13:52:50;;;;;;;3.53;2.93;;;7.50;99.90;;;;;;10334982;28;20704;-75
2022/01/22 13:57:52;;;;;;;6.50;4.10;;;7.50;99.90;;;;;;10329062;28;20250;-76
2022/01/22 14:03:09;;;;;;;3.07;2.70;;;7.50;99.90;;;;;;10327722;28;20220;-78
2022/01/22 14:08:12;;;;;;;5.23;2.93;;;7.50;99.90;;;;;;10313201;28;20614;-77
2022/01/22 14:13:13;;;;;;;3.00;2.70;;;7.50;99.90;;;;;;10321587;28;20223;-77
2022/01/22 14:18:17;;;;;;;2.63;2.40;;;7.50;99.90;;;;;;10312727;28;20298;-76
2022/01/22 14:23:24;;;;;;;5.73;2.40;;;7.50;99.90;;;;;;10311384;28;20227;-77
2022/01/22 14:28:36;;;;;;;3.27;2.43;;;7.50;99.90;;;;;;10315545;28;20243;-76
2022/01/22 14:33:42;;;;;;;7.03;4.67;;;7.40;99.90;;;;;;10324540;28;20219;-76
2022/01/22 14:38:55;;;;;;;3.50;2.60;;;7.40;99.90;;;;;;10306468;28;20238;-77
2022/01/22 14:44:11;;;;;;;3.67;2.20;;;7.50;99.90;;;;;;10303081;28;20218;-77
2022/01/22 14:49:12;;;;;;;2.57;2.33;;;7.40;99.90;;;;;;10324001;28;20757;-77
2022/01/22 14:54:14;;;;;;;2.83;2.20;;;7.40;99.90;;;;;;10307230;28;20305;-75
2022/01/22 14:59:15;;;;;;;3.10;2.60;;;7.40;99.90;;;;;;10318842;28;20314;-76
2022/01/22 15:04:16;;;;;;;3.30;2.60;;;7.40;99.90;;;;;;10303260;28;20758;-76
2022/01/22 15:09:17;;;;;;;3.30;2.73;;;7.40;99.90;;;;;;10327401;28;20221;-76
2022/01/22 15:14:18;;;;;;;4.00;2.47;;;7.40;99.90;;;;;;10299694;28;20245;-76
2022/01/22 15:19:26;;;;;;;4.60;2.20;;;7.40;99.90;;;;;;10318967;28;20234;-76
2022/01/22 15:24:28;;;;;;;4.00;2.73;;;7.40;99.90;;;;;;10311360;28;20227;-76
2022/01/22 15:29:29;;;;;;;5.33;2.60;;;7.40;99.90;;;;;;10316472;28;20587;-76
2022/01/22 15:39:32;;;;;;;2.63;2.30;;;7.30;99.90;;;;;;10316818;28;20601;-73
2022/01/22 15:44:33;;;;;;;6.70;3.37;;;7.30;99.90;;;;;;10321107;28;20557;-73
2022/01/22 15:49:34;;;;;;;3.13;2.80;;;7.20;99.90;;;;;;10291795;28;20233;-74
2022/01/22 15:54:34;;;;;;;3.70;2.60;;;7.20;99.90;;;;;;10320108;28;20226;-77
2022/01/22 15:59:35;;;;;;;4.70;2.97;;;7.20;99.90;;;;;;10304696;28;20231;-76
2022/01/22 16:04:37;;;;;;;5.80;2.80;;;7.20;99.90;;;;;;10303810;28;20219;-75
2022/01/22 16:09:37;;;;;;;4.67;3.00;;;7.20;99.90;;;;;;10323871;28;20264;-74
2022/01/22 16:14:38;;;;;;;5.70;3.57;;;7.20;99.90;;;;;;10324493;28;20217;-75
2022/01/22 16:19:39;;;;;;;9.83;7.23;;;7.10;99.90;;;;;;10318431;28;20228;-76
2022/01/22 16:24:39;;;;;;;3.67;3.00;;;7.10;99.90;;;;;;10328766;28;20224;-77
2022/01/22 16:29:40;;;;;;;5.10;3.73;;;7.10;99.90;;;;;;10315429;28;20289;-75
2022/01/22 16:34:43;;;;;;;5.90;3.57;;;7.10;99.90;;;;;;10312728;28;20307;-74
2022/01/22 16:39:45;;;;;;;4.60;3.43;;;7.10;99.90;;;;;;10300770;28;20682;-74
2022/01/22 17:00:37;;;;;;;4.33;3.60;;;7.10;99.90;;;;;;10308145;28;20220;-75
2022/01/22 17:05:40;;;;;;;6.77;4.57;;;7.10;99.90;;;;;;10320043;28;20298;-76
2022/01/22 17:15:45;;;;;;;5.83;3.90;;;7.00;99.90;;;;;;10312825;28;20259;-77
2022/01/22 17:20:45;;;;;;;5.13;4.10;;;7.10;99.90;;;;;;10305728;28;20219;-74
2022/01/22 17:25:47;;;;;;;5.40;4.30;;;7.10;99.90;;;;;;10296641;28;20478;-76
2022/01/22 17:30:48;;;;;;;8.03;4.73;;;7.10;99.90;;;;;;10300032;28;20230;-76
2022/01/22 17:35:49;;;;;;;7.87;5.07;;;7.00;99.90;;;;;;10313774;28;20219;-75
2022/01/22 17:41:00;;;;;;;6.30;4.87;;;7.10;99.90;;;;;;10309801;28;20224;-76
2022/01/22 17:46:02;;;;;;;7.50;4.90;;;7.10;99.90;;;;;;10306342;28;20692;-76
2022/01/22 17:51:03;;;;;;;5.33;4.83;;;7.10;99.90;;;;;;10294102;28;20423;-75
2022/01/22 17:56:08;;;;;;;8.37;5.47;;;7.00;99.90;;;;;;10301069;28;20224;-75
2022/01/22 18:01:12;;;;;;;5.77;5.17;;;7.00;99.90;;;;;;10311987;28;20273;-74
2022/01/22 18:06:13;;;;;;;6.37;5.20;;;6.90;99.90;;;;;;10312412;28;20225;-74
2022/01/22 18:11:17;;;;;;;11.10;5.90;;;6.90;99.90;;;;;;10305675;28;20218;-75
2022/01/22 18:16:18;;;;;;;8.07;5.70;;;6.90;99.90;;;;;;10292809;28;20363;-75
2022/01/22 18:21:18;;;;;;;7.90;6.50;;;6.80;99.90;;;;;;10294082;28;20216;-76
2022/01/22 18:26:19;;;;;;;8.50;7.07;;;6.90;99.90;;;;;;10284931;28;20230;-75
2022/01/22 18:31:20;;;;;;;8.77;6.73;;;6.90;99.90;;;;;;10312370;28;20239;-75
2022/01/22 18:36:20;;;;;;;8.63;6.97;;;6.90;99.90;;;;;;10310432;28;20260;-75
2022/01/22 18:41:21;;;;;;;8.23;7.37;;;6.90;99.90;;;;;;10311537;28;20919;-75
2022/01/22 18:46:22;;;;;;;8.13;6.23;;;6.90;99.90;;;;;;10309080;28;20228;-77
2022/01/22 18:51:24;;;;;;;7.57;6.77;;;6.90;99.90;;;;;;10299844;28;20791;-75
2022/01/22 18:56:25;;;;;;;8.60;7.30;;;6.90;99.90;;;;;;10314781;28;20709;-75
2022/01/22 19:01:28;;;;;;;10.13;7.17;;;6.90;99.90;;;;;;10293785;28;20353;-75
2022/01/22 19:06:31;;;;;;;8.90;7.00;;;6.90;99.90;;;;;;10312262;28;20220;-75
2022/01/22 19:11:33;;;;;;;8.37;7.27;;;6.90;99.90;;;;;;10299074;28;20233;-75
2022/01/22 19:16:36;;;;;;;10.60;7.10;;;6.80;99.90;;;;;;10293994;28;20230;-75
2022/01/22 19:21:50;;;;;;;10.50;7.63;;;6.80;99.90;;;;;;10308920;28;20230;-74
2022/01/22 19:32:10;;;;;;;10.97;7.63;;;6.80;99.90;;;;;;10303303;28;20226;-75
2022/01/22 19:37:11;;;;;;;9.87;7.87;;;6.80;99.90;;;;;;10311914;28;20798;-75
2022/01/22 19:42:15;;;;;;;12.73;7.63;;;6.80;99.90;;;;;;10311786;28;20275;-75
2022/01/22 19:47:15;;;;;;;10.67;7.40;;;6.80;99.90;;;;;;10301973;28;20230;-74
2022/01/22 19:52:16;;;;;;;12.80;7.57;;;6.80;99.90;;;;;;10300454;28;20300;-75
2022/01/22 19:57:17;;;;;;;10.07;7.93;;;6.70;99.90;;;;;;10311893;28;20230;-75
2022/01/22 20:02:20;;;;;;;11.77;7.93;;;6.70;99.90;;;;;;10310482;28;20261;-75
2022/01/22 20:07:21;;;;;;;14.13;10.07;;;6.70;99.90;;;;;;10299838;28;20240;-75
2022/01/22 20:12:21;;;;;;;13.50;9.07;;;6.70;99.90;;;;;;10310791;28;20230;-75
2022/01/22 20:17:22;;;;;;;11.37;9.27;;;6.70;99.90;;;;;;10317782;28;20809;-74
2022/01/22 20:22:23;;;;;;;12.47;8.30;;;6.80;99.90;;;;;;10299893;28;20766;-74
2022/01/22 20:27:24;;;;;;;14.20;9.40;;;6.80;99.90;;;;;;10291706;28;20233;-77
2022/01/22 20:32:24;;;;;;;12.23;9.00;;;6.70;99.90;;;;;;10300342;28;20650;-75
2022/01/22 20:37:28;;;;;;;12.07;9.57;;;6.80;99.90;;;;;;10295769;28;20226;-74
2022/01/22 20:42:28;;;;;;;12.90;9.93;;;6.70;99.90;;;;;;10309531;28;20289;-75
2022/01/22 20:47:29;;;;;;;12.73;10.00;;;6.70;99.90;;;;;;10321890;28;20218;-75
2022/01/22 20:52:30;;;;;;;16.47;11.50;;;6.60;99.90;;;;;;10301954;28;20226;-75
2022/01/22 20:57:33;;;;;;;16.20;11.50;;;6.60;99.90;;;;;;10325349;28;20317;-75
2022/01/22 21:02:33;;;;;;;16.37;11.73;;;6.60;99.90;;;;;;10291436;28;20313;-76
2022/01/22 21:07:35;;;;;;;15.63;11.50;;;6.60;99.90;;;;;;10308914;28;20313;-75
2022/01/22 21:12:35;;;;;;;14.03;11.50;;;6.60;99.90;;;;;;10315595;28;20280;-75
2022/01/22 21:17:37;;;;;;;16.40;11.60;;;6.60;99.90;;;;;;10303546;28;20221;-75
2022/01/22 21:22:38;;;;;;;17.13;11.93;;;6.60;99.90;;;;;;10299830;28;20229;-75
2022/01/22 21:27:38;;;;;;;15.53;11.70;;;6.60;99.90;;;;;;10312559;28;20332;-75
2022/01/22 21:32:40;;;;;;;16.23;12.50;;;6.60;99.90;;;;;;10289257;28;20235;-75
2022/01/22 21:42:44;;;;;;;17.70;13.10;;;6.60;99.90;;;;;;10314549;28;20761;-75
2022/01/22 21:47:44;;;;;;;18.33;12.80;;;6.70;99.90;;;;;;10303504;28;20766;-76
2022/01/22 21:52:45;;;;;;;17.70;13.17;;;6.60;99.90;;;;;;10308186;28;20237;-75
2022/01/22 21:57:48;;;;;;;17.63;12.90;;;6.60;99.90;;;;;;10292535;28;20309;-75
2022/01/22 22:02:49;;;;;;;17.13;12.47;;;6.60;99.90;;;;;;10305053;28;20249;-75
2022/01/22 22:07:52;;;;;;;17.10;12.77;;;6.60;99.90;;;;;;10312774;28;20268;-75
2022/01/22 22:12:53;;;;;;;16.63;12.93;;;6.60;99.90;;;;;;10298282;28;20230;-74
2022/01/22 22:17:54;;;;;;;19.77;12.90;;;6.60;99.90;;;;;;10290430;28;20602;-75
2022/01/22 22:22:54;;;;;;;26.10;17.23;;;6.60;99.90;;;;;;10308538;28;20899;-74
2022/01/22 22:27:55;;;;;;;22.57;16.20;;;6.60;99.90;;;;;;10308352;28;20280;-74
2022/01/22 22:32:57;;;;;;;20.70;14.27;;;6.60;99.90;;;;;;10313439;28;20285;-75
2022/01/22 22:37:58;;;;;;;20.13;14.20;;;6.50;99.90;;;;;;10286742;28;20219;-74
2022/01/22 22:42:58;;;;;;;24.27;16.03;;;6.50;99.90;;;;;;10309212;28;20586;-75
2022/01/22 22:48:00;;;;;;;18.83;14.30;;;6.50;99.90;;;;;;10290029;28;20309;-75
2022/01/22 22:53:00;;;;;;;21.73;15.50;;;6.50;99.90;;;;;;10294506;28;20281;-76
2022/01/22 22:58:02;;;;;;;22.53;16.27;;;6.40;99.90;;;;;;10314424;28;20266;-74
2022/01/22 23:03:02;;;;;;;22.03;14.93;;;6.40;99.90;;;;;;10304192;28;20229;-75
2022/01/22 23:08:03;;;;;;;21.20;13.53;;;6.40;99.90;;;;;;10310307;28;20244;-76
2022/01/22 23:13:05;;;;;;;16.10;12.40;;;6.40;99.90;;;;;;10305584;28;20733;-75
2022/01/22 23:28:37;;;;;;;17.63;13.17;;;6.40;99.90;;;;;;10302065;28;20230;-74
2022/01/22 23:33:45;;;;;;;18.07;13.27;;;6.40;99.90;;;;;;10292224;28;20233;-76
2022/01/22 23:54:50;;;;;;;17.43;12.73;;;6.50;99.90;;;;;;10310717;28;20241;-74
